Time;durP1;ratioP1;P1;durP2;ratioP2;P2;SDS_P1;SDS_P2;PMS_P1;PMS_P2;Temp;Humidity;BMP_temperature;BMP_pressure;BME280_temperature;BME280_humidity;BME280_pressure;Samples;Min_cycle;Max_cycle;Signal;HPM_P1;HPM_P2
2022/04/18 00:02:19;;;;;;;23.65;16.35;;;27.80;91.70;;;;;;1858800;75;21134;-81
2022/04/18 00:04:48;;;;;;;29.85;19.48;;;27.80;91.80;;;;;;1869395;75;21134;-79
2022/04/18 00:07:19;;;;;;;29.12;21.37;;;27.80;92.30;;;;;;1880517;76;21104;-79
2022/04/18 00:09:52;;;;;;;38.78;30.00;;;27.70;92.40;;;;;;1862584;75;21095;-79
2022/04/18 00:12:23;;;;;;;27.70;19.80;;;27.80;92.10;;;;;;1857819;75;21137;-80
2022/04/18 00:14:54;;;;;;;22.25;16.20;;;27.70;91.40;;;;;;1870080;75;21135;-80
2022/04/18 00:17:25;;;;;;;22.95;16.00;;;27.80;91.40;;;;;;1871412;75;21208;-81
2022/04/18 00:19:56;;;;;;;29.50;20.82;;;27.80;91.90;;;;;;1869947;75;21162;-81
2022/04/18 00:22:27;;;;;;;25.90;18.17;;;27.80;92.10;;;;;;1877696;75;21150;-83
2022/04/18 00:24:58;;;;;;;25.68;16.65;;;27.80;91.90;;;;;;1863263;76;21101;-83
2022/04/18 00:27:29;;;;;;;22.15;16.32;;;27.80;91.70;;;;;;1876709;75;21211;-82
2022/04/18 00:30:02;;;;;;;28.80;17.65;;;27.90;92.20;;;;;;1891233;74;21141;-81
2022/04/18 00:32:36;;;;;;;25.77;16.37;;;27.90;91.80;;;;;;1843993;76;21169;-83
2022/04/18 00:35:10;;;;;;;22.93;15.53;;;27.90;91.60;;;;;;1873773;74;21543;-82
2022/04/18 00:37:57;;;;;;;;;;;;;;;;;;;;;
2022/04/18 00:40:50;;;;;;;24.30;15.25;;;28.00;90.60;;;;;;1725724;82;21636;-83
2022/04/18 00:43:23;;;;;;;21.23;14.95;;;28.00;90.40;;;;;;1876430;74;21146;-82
2022/04/18 00:45:54;;;;;;;25.30;16.42;;;28.00;90.20;;;;;;1870311;76;21213;-82
2022/04/18 00:48:25;;;;;;;25.68;19.50;;;28.00;90.00;;;;;;1862410;76;21107;-82
2022/04/18 00:50:56;;;;;;;23.25;16.20;;;28.00;88.80;;;;;;1898158;74;21106;-81
2022/04/18 00:53:28;;;;;;;23.87;14.63;;;28.10;89.20;;;;;;1898063;74;21247;-82
2022/04/18 00:55:59;;;;;;;19.10;14.33;;;28.00;89.00;;;;;;1852069;77;21169;-82
2022/04/18 00:58:33;;;;;;;17.70;13.03;;;28.20;87.70;;;;;;1851181;76;21155;-83
2022/04/18 01:01:04;;;;;;;23.75;13.90;;;28.20;87.20;;;;;;1853121;76;21103;-81
2022/04/18 01:03:35;;;;;;;20.23;13.28;;;28.20;86.60;;;;;;1844465;76;21202;-73
2022/04/18 01:06:06;;;;;;;20.88;14.60;;;28.30;86.50;;;;;;1859418;77;21274;-73
2022/04/18 01:08:37;;;;;;;35.05;15.83;;;28.30;86.90;;;;;;1823026;77;21586;-72
2022/04/18 01:11:09;;;;;;;23.00;12.93;;;28.30;85.90;;;;;;1849327;77;21278;-72
2022/04/18 01:13:45;;;;;;;23.67;13.58;;;28.30;85.50;;;;;;1857204;76;21166;-73
2022/04/18 01:16:17;;;;;;;26.68;14.78;;;28.30;85.60;;;;;;1850081;76;21127;-72
2022/04/18 01:18:49;;;;;;;21.17;13.22;;;28.30;85.40;;;;;;1839764;76;21641;-72
2022/04/18 01:21:20;;;;;;;22.22;13.08;;;28.30;85.00;;;;;;1886710;75;21182;-73
2022/04/18 01:23:51;;;;;;;18.27;12.50;;;28.20;84.50;;;;;;1892396;76;21064;-72
2022/04/18 01:29:05;;;;;;;22.40;13.85;;;28.30;84.20;;;;;;1870081;76;21715;-73
2022/04/18 01:31:28;;;;;;;18.75;14.05;;;28.40;83.80;;;;;;1875148;75;21484;-74
2022/04/18 01:34:00;;;;;;;21.40;12.53;;;28.40;84.20;;;;;;1883858;76;21059;-72
2022/04/18 01:36:32;;;;;;;19.67;12.63;;;28.40;84.30;;;;;;1892988;76;21131;-73
2022/04/18 01:39:03;;;;;;;19.20;13.60;;;28.60;83.40;;;;;;1878365;76;21159;-72
2022/04/18 01:41:37;;;;;;;21.30;13.83;;;28.70;83.40;;;;;;1875274;76;21491;-73
2022/04/18 01:44:09;;;;;;;20.30;13.98;;;28.70;83.20;;;;;;1871823;76;21149;-73
2022/04/18 01:46:40;;;;;;;19.67;12.23;;;28.70;83.50;;;;;;1888333;76;21138;-73
2022/04/18 01:49:11;;;;;;;17.73;12.18;;;28.70;82.70;;;;;;1881226;76;21524;-72
2022/04/18 01:51:42;;;;;;;18.80;12.45;;;28.90;82.80;;;;;;1880878;75;21055;-73
2022/04/18 01:54:13;;;;;;;24.20;12.80;;;28.90;82.70;;;;;;1860118;77;21660;-73
2022/04/18 01:56:47;;;;;;;24.80;13.15;;;28.90;82.90;;;;;;1864739;75;21173;-73
2022/04/18 01:59:18;;;;;;;21.77;11.80;;;28.90;82.90;;;;;;1875816;75;21174;-73
2022/04/18 02:01:49;;;;;;;18.57;12.43;;;29.10;83.40;;;;;;1874443;75;21100;-72
2022/04/18 02:04:20;;;;;;;16.52;11.80;;;28.90;84.00;;;;;;1863399;76;21185;-72
2022/04/18 02:06:51;;;;;;;17.65;12.00;;;29.00;84.60;;;;;;1836993;76;21091;-72
2022/04/18 02:09:22;;;;;;;21.33;12.28;;;29.30;83.20;;;;;;1869065;74;21157;-72
2022/04/18 02:11:59;;;;;;;20.17;12.25;;;29.30;82.50;;;;;;1864371;76;21094;-72
2022/04/18 02:14:30;;;;;;;17.27;12.70;;;29.40;82.00;;;;;;1873926;76;21107;-71
2022/04/18 02:17:01;;;;;;;19.52;12.85;;;29.50;82.90;;;;;;1874460;75;21225;-72
2022/04/18 02:19:32;;;;;;;17.70;11.97;;;29.60;82.50;;;;;;1874193;75;21674;-71
2022/04/18 02:22:03;;;;;;;17.45;12.88;;;29.70;82.20;;;;;;1880151;75;21115;-72
2022/04/18 02:24:34;;;;;;;20.10;12.43;;;29.70;81.70;;;;;;1867881;76;21764;-71
2022/04/18 02:27:06;;;;;;;23.50;12.25;;;29.80;80.80;;;;;;1860891;75;21091;-71
2022/04/18 02:29:38;;;;;;;20.75;13.98;;;29.70;80.90;;;;;;1881818;75;21539;-71
2022/04/18 02:34:41;;;;;;;18.55;12.63;;;29.90;80.50;;;;;;1869174;75;21084;-72
2022/04/18 02:37:12;;;;;;;21.00;12.98;;;30.00;79.10;;;;;;1871760;75;21098;-73
2022/04/18 02:39:43;;;;;;;19.23;12.85;;;29.90;77.70;;;;;;1868269;75;21096;-73
2022/04/18 02:42:14;;;;;;;22.48;13.08;;;29.90;77.00;;;;;;1883617;75;21139;-72
2022/04/18 02:44:49;;;;;;;20.68;13.10;;;29.90;76.50;;;;;;1876513;75;21134;-73
2022/04/18 02:47:17;;;;;;;22.00;13.28;;;29.90;76.80;;;;;;1848116;75;21524;-73
2022/04/18 02:49:52;;;;;;;21.65;13.65;;;30.00;77.10;;;;;;1868335;76;21090;-73
2022/04/18 02:52:22;;;;;;;21.68;12.78;;;30.10;77.00;;;;;;1873469;75;21637;-73
2022/04/18 02:54:53;;;;;;;18.00;13.03;;;30.20;75.80;;;;;;1870798;75;21078;-73
2022/04/18 02:57:24;;;;;;;23.90;14.15;;;30.30;75.30;;;;;;1888710;75;21551;-73
2022/04/18 02:59:55;;;;;;;19.05;12.82;;;30.40;75.30;;;;;;1868805;76;21135;-73
2022/04/18 03:02:27;;;;;;;19.87;12.73;;;30.50;74.90;;;;;;1879416;75;21123;-73
2022/04/18 03:04:58;;;;;;;23.60;13.48;;;30.60;74.60;;;;;;1878869;75;21484;-73
2022/04/18 03:07:29;;;;;;;23.55;14.25;;;30.60;75.00;;;;;;1865303;75;21480;-73
2022/04/18 03:11:02;;;;;;;24.47;13.68;;;30.70;74.10;;;;;;1883946;75;21083;-73
2022/04/18 03:12:51;;;;;;;27.37;15.25;;;30.80;74.00;;;;;;1822497;78;21268;-73
2022/04/18 03:15:22;;;;;;;17.92;13.38;;;30.90;73.40;;;;;;1811408;77;21179;-73
2022/04/18 03:17:53;;;;;;;21.70;15.15;;;31.00;74.40;;;;;;1818503;78;21091;-72
2022/04/18 03:20:24;;;;;;;22.67;14.75;;;31.10;72.80;;;;;;1843387;76;21524;-72
2022/04/18 03:22:55;;;;;;;21.68;13.83;;;31.10;73.00;;;;;;1829907;76;21183;-73
2022/04/18 03:25:26;;;;;;;26.10;15.43;;;31.10;73.00;;;;;;1848877;76;21084;-73
2022/04/18 03:27:57;;;;;;;19.10;12.88;;;31.20;72.80;;;;;;1844030;76;21176;-72
2022/04/18 03:30:28;;;;;;;19.10;12.88;;;31.20;72.90;;;;;;1818566;76;21103;-71
2022/04/18 03:32:59;;;;;;;24.55;15.15;;;31.20;72.30;;;;;;1815008;76;21160;-72
2022/04/18 03:35:31;;;;;;;19.77;13.78;;;31.30;72.30;;;;;;1768827;80;21974;-72
2022/04/18 03:40:36;;;;;;;21.07;15.13;;;31.50;72.20;;;;;;1774556;79;21164;-73
2022/04/18 03:43:07;;;;;;;20.95;13.98;;;31.70;71.40;;;;;;1837238;76;21100;-72
2022/04/18 03:45:39;;;;;;;22.95;14.33;;;31.70;71.80;;;;;;1845962;76;21087;-72
2022/04/18 03:48:11;;;;;;;21.65;14.75;;;31.80;71.30;;;;;;1817233;77;21235;-72
2022/04/18 03:50:41;;;;;;;19.02;14.68;;;31.90;70.60;;;;;;1829905;76;21174;-73
2022/04/18 03:53:12;;;;;;;21.80;14.50;;;31.90;71.70;;;;;;1829303;76;21236;-72
2022/04/18 03:55:45;;;;;;;22.93;15.28;;;31.90;70.60;;;;;;1817062;78;21219;-73
2022/04/18 03:58:15;;;;;;;22.00;14.93;;;31.90;70.30;;;;;;1818639;77;21203;-73
2022/04/18 04:00:47;;;;;;;20.90;14.73;;;31.90;71.60;;;;;;1821585;77;21091;-73
2022/04/18 04:03:17;;;;;;;21.68;14.60;;;32.00;71.10;;;;;;1825826;76;21194;-72
2022/04/18 04:05:48;;;;;;;21.33;14.38;;;32.10;70.70;;;;;;1811265;76;21543;-72
2022/04/18 04:08:23;;;;;;;23.83;15.00;;;32.10;70.90;;;;;;1805902;78;21129;-73
2022/04/18 04:10:56;;;;;;;24.95;15.32;;;32.20;71.00;;;;;;1816926;78;21142;-72
2022/04/18 04:13:28;;;;;;;24.52;15.05;;;32.30;70.30;;;;;;1805466;78;21675;-72
2022/04/18 04:15:59;;;;;;;19.05;14.35;;;;;;;;;;1816093;78;21167;-72
2022/04/18 04:18:29;;;;;;;22.95;14.10;;;;;;;;;;1817751;78;21105;-72
2022/04/18 04:21:03;;;;;;;24.52;15.28;;;;;;;;;;1825538;78;21158;-72
2022/04/18 04:23:40;;;;;;;21.30;15.20;;;;;;;;;;1805863;78;21190;-73
2022/04/18 04:26:12;;;;;;;24.87;15.68;;;;;;;;;;1773415;79;21334;-72
2022/04/18 04:28:43;;;;;;;22.67;16.27;;;;;;;;;;1750667;81;21133;-72
2022/04/18 04:31:14;;;;;;;27.60;16.60;;;;;;;;;;1762995;80;21177;-72
2022/04/18 04:33:44;;;;;;;29.80;15.60;;;;;;;;;;1760651;80;21172;-72
2022/04/18 04:36:15;;;;;;;23.55;15.68;;;;;;;;;;1763191;80;21115;-72
2022/04/18 04:38:46;;;;;;;21.52;15.48;;;;;;;;;;1766298;80;21231;-72
2022/04/18 04:41:17;;;;;;;26.52;15.75;;;;;;;;;;1756334;80;21251;-71
2022/04/18 04:43:47;;;;;;;21.70;15.00;;;;;;;;;;1762656;80;21228;-73
2022/04/18 04:46:18;;;;;;;19.02;15.38;;;;;;;;;;1766546;80;21174;-72
2022/04/18 04:48:49;;;;;;;21.35;15.20;;;;;;;;;;1768691;80;21227;-73
2022/04/18 04:51:19;;;;;;;20.82;16.30;;;;;;;;;;1786564;78;21096;-73
2022/04/18 04:53:50;;;;;;;21.62;14.93;;;;;;;;;;1831747;76;21252;-73
2022/04/18 04:56:24;;;;;;;23.20;16.20;;;;;;;;;;1831181;76;21080;-73
2022/04/18 04:58:54;;;;;;;25.68;15.98;;;;;;;;;;1828863;76;21185;-73
2022/04/18 05:01:25;;;;;;;24.12;15.50;;;;;;;;;;1837583;76;21580;-73
2022/04/18 05:03:55;;;;;;;26.00;15.28;;;;;;;;;;1841687;77;21200;-72
2022/04/18 05:06:26;;;;;;;21.73;15.20;;;;;;;;;;1812755;78;21628;-73
2022/04/18 05:08:59;;;;;;;20.85;15.13;;;;;;;;;;1831282;76;21185;-72
2022/04/18 05:11:30;;;;;;;25.75;16.32;;;;;;;;;;1832352;76;21139;-72
2022/04/18 05:14:00;;;;;;;25.57;15.05;;;;;;;;;;1851960;77;21067;-72
2022/04/18 05:16:30;;;;;;;25.20;15.88;;;;;;;;;;1857893;76;21143;-73
2022/04/18 05:19:01;;;;;;;23.02;15.65;;;;;;;;;;1866688;75;21439;-72
2022/04/18 05:21:31;;;;;;;23.35;15.95;;;;;;;;;;1856647;77;21110;-72
2022/04/18 05:24:02;;;;;;;24.50;15.60;;;;;;;;;;1837479;78;21107;-72
2022/04/18 05:26:33;;;;;;;24.23;15.32;;;;;;;;;;1837891;78;21192;-72
2022/04/18 05:29:03;;;;;;;25.00;16.05;;;;;;;;;;1861168;75;21095;-71
2022/04/18 05:31:34;;;;;;;27.93;16.32;;;;;;;;;;1868398;77;21188;-72
2022/04/18 05:34:04;;;;;;;26.87;16.32;;;;;;;;;;1869361;77;21224;-72
2022/04/18 05:36:35;;;;;;;26.27;16.27;;;;;;;;;;1839659;77;21118;-73
2022/04/18 05:39:05;;;;;;;25.25;16.60;;;;;;;;;;1838277;77;21092;-73
2022/04/18 05:41:36;;;;;;;27.32;16.97;;;;;;;;;;1838128;77;21147;-72
2022/04/18 05:44:07;;;;;;;23.83;16.62;;;;;;;;;;1862890;76;21236;-84
2022/04/18 05:46:37;;;;;;;25.32;16.50;;;;;;;;;;1841536;77;21188;-83
2022/04/18 05:49:08;;;;;;;21.33;15.13;;;;;;;;;;1840854;77;21577;-86
2022/04/18 05:51:38;;;;;;;24.43;15.93;;;;;;;;;;1849338;75;21097;-84
2022/04/18 05:54:08;;;;;;;27.17;16.50;;;;;;;;;;1838579;78;21094;-85
2022/04/18 05:56:39;;;;;;;21.60;16.32;;;;;;;;;;1839582;76;21158;-85
2022/04/18 05:59:09;;;;;;;20.27;16.27;;;;;;;;;;1869893;76;21133;-85
2022/04/18 06:01:40;;;;;;;24.15;16.07;;;;;;;;;;1872658;76;21671;-84
2022/04/18 06:04:11;;;;;;;23.65;16.37;;;;;;;;;;1852040;77;21126;-85
2022/04/18 06:06:41;;;;;;;27.10;16.50;;;;;;;;;;1869823;77;21145;-84
2022/04/18 06:09:12;;;;;;;23.00;16.20;;;;;;;;;;1853846;77;21135;-73
2022/04/18 06:11:43;;;;;;;22.65;16.75;;;32.20;99.00;;;;;;1842163;77;21104;-73
2022/04/18 06:14:13;;;;;;;29.60;17.57;;;32.50;97.90;;;;;;1840509;75;21163;-73
2022/04/18 06:16:44;;;;;;;24.75;16.48;;;;;;;;;;1837608;78;21559;-73
2022/04/18 06:19:19;;;;;;;22.55;15.80;;;;;;;;;;1848480;77;21154;-73
2022/04/18 06:21:51;;;;;;;26.45;15.53;;;;;;;;;;1848903;77;21087;-72
2022/04/18 06:24:24;;;;;;;23.80;14.90;;;;;;;;;;1863826;77;21145;-72
2022/04/18 06:26:58;;;;;;;24.10;15.38;;;;;;;;;;1857015;77;21161;-73
2022/04/18 06:29:32;;;;;;;24.57;15.32;;;;;;;;;;1846122;77;21216;-72
2022/04/18 06:32:05;;;;;;;26.17;15.48;;;;;;;;;;1859167;75;21133;-72
2022/04/18 06:34:39;;;;;;;30.85;17.02;;;;;;;;;;1853045;77;21080;-71
2022/04/18 06:37:10;;;;;;;23.92;15.55;;;;;;;;;;1854826;77;21165;-74
2022/04/18 06:39:43;;;;;;;23.40;14.58;;;;;;;;;;1844297;77;21151;-74
2022/04/18 06:42:14;;;;;;;25.25;15.83;;;;;;;;;;1848482;77;21067;-73
2022/04/18 06:44:46;;;;;;;28.65;15.18;;;;;;;;;;1837944;77;21158;-73
2022/04/18 06:47:19;;;;;;;23.60;14.23;;;;;;;;;;1868448;77;21133;-73
2022/04/18 06:49:52;;;;;;;20.82;14.13;;;;;;;;;;1869862;77;21535;-73
2022/04/18 06:52:26;;;;;;;26.02;14.80;;;;;;;;;;1863418;77;21103;-73
2022/04/18 06:55:02;;;;;;;20.32;14.23;;;;;;;;;;1849562;77;21095;-73
2022/04/18 06:57:36;;;;;;;19.45;13.98;;;;;;;;;;1868947;77;21134;-73
2022/04/18 07:00:09;;;;;;;20.15;13.58;;;;;;;;;;1854535;77;21677;-73
2022/04/18 07:02:44;;;;;;;21.23;13.35;;;;;;;;;;1849783;75;21125;-73
2022/04/18 07:05:18;;;;;;;29.02;14.70;;;;;;;;;;1837782;78;21515;-72
2022/04/18 07:07:51;;;;;;;23.18;14.43;;;;;;;;;;1851296;77;21177;-72
2022/04/18 07:10:25;;;;;;;24.52;13.68;;;;;;;;;;1847522;77;21067;-73
2022/04/18 07:12:58;;;;;;;24.92;14.35;;;;;;;;;;1815693;77;21535;-72
2022/04/18 07:15:34;;;;;;;22.80;15.50;;;;;;;;;;1837614;77;21161;-72
2022/04/18 07:18:08;;;;;;;20.77;14.07;;;;;;;;;;1891466;75;21193;-72
2022/04/18 07:20:42;;;;;;;20.37;13.05;;;;;;;;;;1862530;75;21073;-71
2022/04/18 07:23:17;;;;;;;22.22;13.45;;;;;;;;;;1868954;75;21150;-74
2022/04/18 07:25:51;;;;;;;23.50;14.70;;;;;;;;;;1884169;75;21163;-72
2022/04/18 07:28:24;;;;;;;22.90;13.98;;;;;;;;;;1864739;75;21112;-73
2022/04/18 07:30:56;;;;;;;20.30;13.03;;;;;;;;;;1876954;75;21171;-72
2022/04/18 07:33:28;;;;;;;19.07;13.40;;;;;;;;;;1900600;75;21190;-73
2022/04/18 07:36:05;;;;;;;24.65;13.65;;;;;;;;;;1876896;75;21265;-72
2022/04/18 07:38:50;;;;;;;29.57;15.03;;;;;;;;;;1863733;75;21103;-72
2022/04/18 07:41:17;;;;;;;22.93;14.15;;;;;;;;;;1810274;77;21341;-71
2022/04/18 07:43:49;;;;;;;24.05;14.75;;;;;;;;;;1847128;76;21084;-73
2022/04/18 07:46:22;;;;;;;19.92;13.98;;;;;;;;;;1802138;79;21159;-73
2022/04/18 07:48:59;;;;;;;26.65;16.15;;;;;;;;;;1872009;75;21063;-73
2022/04/18 07:51:35;;;;;;;23.98;13.45;;;;;;;;;;1884784;75;21206;-71
2022/04/18 07:54:08;;;;;;;24.65;14.50;;;;;;;;;;1883399;75;21148;-72
2022/04/18 07:56:41;;;;;;;23.42;13.70;;;;;;;;;;1859472;75;21811;-72
2022/04/18 07:59:16;;;;;;;22.93;13.60;;;;;;;;;;1844058;75;21316;-72
2022/04/18 08:01:51;;;;;;;22.50;14.53;;;;;;;;;;1841588;77;21170;-71
2022/04/18 08:04:25;;;;;;;24.50;15.40;;;;;;;;;;1855296;75;21161;-72
2022/04/18 08:06:58;;;;;;;28.07;15.70;;;;;;;;;;1849111;75;21143;-76
2022/04/18 08:09:33;;;;;;;24.82;15.65;;;;;;;;;;1852510;77;21587;-71
2022/04/18 08:12:06;;;;;;;22.80;14.25;;;;;;;;;;1869324;77;21214;-74
2022/04/18 08:14:39;;;;;;;27.13;14.93;;;;;;;;;;1848634;77;21095;-74
2022/04/18 08:17:17;;;;;;;22.90;13.78;;;;;;;;;;1814937;76;21530;-72
2022/04/18 08:19:57;;;;;;;24.25;15.60;;;;;;;;;;1827916;76;21602;-74
2022/04/18 08:22:29;;;;;;;25.60;16.02;;;;;;;;;;1848345;77;21209;-73
2022/04/18 08:25:05;;;;;;;23.98;16.27;;;;;;;;;;1827199;78;21207;-74
2022/04/18 08:27:41;;;;;;;27.67;16.05;;;;;;;;;;1824962;77;21150;-71
2022/04/18 08:30:17;;;;;;;28.45;16.97;;;;;;;;;;1832716;77;21059;-73
2022/04/18 08:32:53;;;;;;;25.10;16.05;;;;;;;;;;1855708;77;21641;-74
2022/04/18 08:35:32;;;;;;;23.57;16.82;;;;;;;;;;1846172;76;21076;-72
2022/04/18 08:38:06;;;;;;;25.90;17.75;;;;;;;;;;1834270;76;21167;-73
2022/04/18 08:40:43;;;;;;;22.37;16.30;;;;;;;;;;1859167;76;21524;-72
2022/04/18 08:43:18;;;;;;;25.75;16.00;;;;;;;;;;1849202;76;21174;-73
2022/04/18 08:45:57;;;;;;;22.27;15.98;;;;;;;;;;1838232;77;21504;-74
2022/04/18 08:53:47;;;;;;;23.07;18.12;;;;;;;;;;1854891;76;21236;-75
2022/04/18 08:56:19;;;;;;;24.57;16.05;;;;;;;;;;1848146;76;21164;-72
2022/04/18 08:58:50;;;;;;;26.50;17.10;;;;;;;;;;1858977;76;21078;-71
2022/04/18 09:01:20;;;;;;;24.20;17.92;;;;;;;;;;1840786;76;21203;-72
2022/04/18 09:03:51;;;;;;;29.92;18.35;;;;;;;;;;1854971;76;21201;-73
2022/04/18 09:06:26;;;;;;;30.92;19.77;;;28.80;84.80;;;;;;1844285;77;21198;-72
2022/04/18 09:09:01;;;;;;;29.65;20.12;;;28.80;85.40;;;;;;1833460;76;21200;-72
2022/04/18 09:11:36;;;;;;;30.02;19.98;;;28.70;85.90;;;;;;1846527;76;21139;-73
2022/04/18 09:14:09;;;;;;;32.25;19.65;;;28.60;85.90;;;;;;1845271;76;21146;-72
2022/04/18 09:16:42;;;;;;;27.67;17.98;;;28.60;86.20;;;;;;1847279;76;21587;-72
2022/04/18 09:19:16;;;;;;;31.17;18.20;;;28.60;86.50;;;;;;1868386;75;21654;-73
2022/04/18 09:21:49;;;;;;;31.12;17.45;;;28.60;86.60;;;;;;1871176;75;21587;-72
2022/04/18 09:24:24;;;;;;;28.73;17.50;;;28.50;86.70;;;;;;1860258;76;21749;-72
2022/04/18 09:26:55;;;;;;;25.50;17.27;;;28.60;86.90;;;;;;1886872;75;21504;-72
2022/04/18 09:29:28;;;;;;;24.07;16.52;;;28.70;86.80;;;;;;1888778;74;21146;-72
2022/04/18 09:32:00;;;;;;;29.48;16.85;;;28.80;86.30;;;;;;1893588;74;21848;-72
2022/04/18 09:34:31;;;;;;;29.27;16.85;;;29.00;87.20;;;;;;1886366;74;21107;-73
2022/04/18 09:37:05;;;;;;;23.77;15.18;;;29.00;85.30;;;;;;1892322;74;21824;-72
2022/04/18 09:39:37;;;;;;;23.02;14.75;;;29.00;85.00;;;;;;1825394;76;21092;-72
2022/04/18 09:42:10;;;;;;;22.73;13.70;;;29.10;84.70;;;;;;1888652;74;21208;-72
2022/04/18 09:44:42;;;;;;;19.62;12.68;;;29.00;84.70;;;;;;1842537;77;21207;-73
2022/04/18 09:47:16;;;;;;;21.77;12.98;;;29.00;84.40;;;;;;1860797;74;21557;-73
2022/04/18 09:49:51;;;;;;;20.95;13.32;;;29.00;83.80;;;;;;1812499;79;21540;-73
2022/04/18 09:52:23;;;;;;;19.80;12.85;;;29.00;84.00;;;;;;1846933;78;21079;-72
2022/04/18 09:54:57;;;;;;;20.97;13.22;;;29.00;83.30;;;;;;1848289;78;21090;-72
2022/04/18 09:57:29;;;;;;;19.35;12.73;;;28.90;83.10;;;;;;1855149;76;21086;-72
2022/04/18 10:00:02;;;;;;;19.37;13.13;;;29.00;82.90;;;;;;1863803;76;21578;-73
2022/04/18 10:02:36;;;;;;;21.10;13.18;;;28.90;82.40;;;;;;1851329;76;21794;-72
2022/04/18 10:05:08;;;;;;;20.45;12.90;;;28.90;82.00;;;;;;1876999;76;21137;-71
2022/04/18 10:07:39;;;;;;;20.10;12.20;;;28.80;81.80;;;;;;1873684;76;21217;-73
2022/04/18 10:10:10;;;;;;;18.95;13.15;;;28.80;81.20;;;;;;1867049;76;21583;-73
2022/04/18 10:12:42;;;;;;;17.17;12.20;;;28.80;81.10;;;;;;1876002;76;21707;-73
2022/04/18 10:15:16;;;;;;;21.75;13.35;;;28.80;81.30;;;;;;1854924;76;21637;-73
2022/04/18 10:17:47;;;;;;;21.35;12.10;;;28.80;80.90;;;;;;1853973;76;21138;-72
2022/04/18 10:20:21;;;;;;;21.48;12.15;;;28.80;81.30;;;;;;1833362;78;21623;-72
2022/04/18 10:22:54;;;;;;;19.55;12.53;;;28.70;81.00;;;;;;1829647;77;21222;-72
2022/04/18 10:25:33;;;;;;;19.15;12.93;;;28.70;81.20;;;;;;1829275;76;21482;-85
2022/04/18 10:28:10;;;;;;;18.30;12.82;;;28.70;81.10;;;;;;1844397;76;21661;-83
2022/04/18 10:30:43;;;;;;;23.42;12.00;;;28.70;81.70;;;;;;1821612;78;21156;-82
2022/04/18 10:33:16;;;;;;;22.37;12.33;;;28.70;82.40;;;;;;1819697;76;21230;-82
2022/04/18 10:35:49;;;;;;;19.42;12.10;;;28.60;82.50;;;;;;1823296;76;21175;-83
2022/04/18 10:38:56;;;;;;;19.65;12.43;;;28.60;83.30;;;;;;1813102;76;21162;-82
2022/04/18 10:41:30;;;;;;;20.90;12.47;;;28.60;83.80;;;;;;1821386;76;21116;-83
2022/04/18 10:44:05;;;;;;;21.07;13.28;;;28.60;84.20;;;;;;1821659;76;21188;-82
2022/04/18 10:46:38;;;;;;;25.68;13.70;;;28.60;83.90;;;;;;1838393;76;21105;-83
2022/04/18 10:49:11;;;;;;;25.32;15.48;;;28.60;84.20;;;;;;1832970;76;21089;-82
2022/04/18 10:51:50;;;;;;;24.77;13.55;;;28.50;85.30;;;;;;1820330;76;21082;-82
2022/04/18 10:54:23;;;;;;;55.55;41.33;;;28.50;85.90;;;;;;1846957;76;21242;-82
2022/04/18 10:56:56;;;;;;;23.32;14.00;;;28.40;86.00;;;;;;1831079;76;21107;-81
2022/04/18 10:59:30;;;;;;;32.80;19.77;;;28.40;86.20;;;;;;1811938;75;21228;-82
2022/04/18 11:02:06;;;;;;;33.25;22.00;;;28.30;86.60;;;;;;1814855;76;21144;-82
2022/04/18 11:04:41;;;;;;;25.75;14.30;;;28.20;87.10;;;;;;1843694;78;21064;-81
2022/04/18 11:07:15;;;;;;;24.85;14.18;;;28.10;88.20;;;;;;1812965;78;21412;-82
2022/04/18 11:09:49;;;;;;;22.93;13.58;;;27.90;89.00;;;;;;1829602;76;21100;-83
2022/04/18 11:12:22;;;;;;;23.70;14.63;;;27.60;88.80;;;;;;1822541;76;21066;-82
2022/04/18 11:14:56;;;;;;;24.45;14.20;;;27.40;90.50;;;;;;1835709;76;21158;-81
2022/04/18 11:17:30;;;;;;;20.40;12.58;;;27.20;90.00;;;;;;1826310;76;21583;-82
2022/04/18 11:20:04;;;;;;;21.85;14.20;;;27.10;90.90;;;;;;1872312;75;21111;-82
2022/04/18 11:22:39;;;;;;;20.23;14.23;;;26.90;90.90;;;;;;1899714;75;21158;-83
2022/04/18 11:25:11;;;;;;;20.43;13.50;;;26.80;92.30;;;;;;1881769;75;21086;-81
2022/04/18 11:27:44;;;;;;;22.32;14.03;;;26.60;92.70;;;;;;1843621;75;21141;-82
2022/04/18 11:30:18;;;;;;;24.32;14.58;;;26.50;93.20;;;;;;1850048;76;21152;-81
2022/04/18 11:32:51;;;;;;;21.80;14.78;;;26.40;93.80;;;;;;1869324;75;21084;-83
2022/04/18 11:35:23;;;;;;;24.02;14.85;;;26.30;94.10;;;;;;1878236;76;21450;-82
2022/04/18 11:37:58;;;;;;;21.90;13.80;;;26.30;94.40;;;;;;1859450;77;21539;-82
2022/04/18 11:40:32;;;;;;;21.10;14.38;;;26.30;94.80;;;;;;1881558;76;21157;-82
2022/04/18 11:43:08;;;;;;;18.73;14.65;;;26.20;95.00;;;;;;1854342;76;21630;-85
2022/04/18 11:45:40;;;;;;;18.77;13.55;;;26.20;95.20;;;;;;1838155;77;21071;-82
2022/04/18 11:48:13;;;;;;;20.32;12.95;;;26.20;95.40;;;;;;1832754;76;21603;-82
2022/04/18 11:50:47;;;;;;;22.62;13.48;;;26.10;95.30;;;;;;1868313;75;21080;-82
2022/04/18 11:53:20;;;;;;;16.05;12.45;;;26.00;95.50;;;;;;1877872;75;21612;-83
2022/04/18 11:55:50;;;;;;;17.40;11.50;;;26.00;95.60;;;;;;1868156;75;21059;-82
2022/04/18 11:58:22;;;;;;;13.15;9.00;;;25.90;95.50;;;;;;1871574;75;21228;-83
2022/04/18 12:08:33;;;;;;;13.43;9.00;;;25.70;95.30;;;;;;1857957;75;21155;-82
2022/04/18 12:11:05;;;;;;;15.95;8.45;;;25.60;95.60;;;;;;1873728;75;21084;-82
2022/04/18 12:13:39;;;;;;;14.10;8.68;;;25.60;95.50;;;;;;1866886;77;21208;-83
2022/04/18 12:16:11;;;;;;;14.98;9.20;;;25.50;95.70;;;;;;1872354;75;21228;-83
2022/04/18 12:18:46;;;;;;;16.82;9.68;;;25.50;95.90;;;;;;1849432;75;21180;-82
2022/04/18 12:21:17;;;;;;;15.10;9.85;;;25.50;95.60;;;;;;1860311;76;21093;-82
2022/04/18 12:23:51;;;;;;;14.35;9.80;;;25.50;95.90;;;;;;1855144;75;21081;-83
2022/04/18 12:26:24;;;;;;;14.35;9.50;;;25.60;96.20;;;;;;1860567;75;21720;-82
2022/04/18 12:28:58;;;;;;;14.47;9.15;;;25.60;95.80;;;;;;1862649;75;21146;-81
2022/04/18 12:31:29;;;;;;;13.43;9.88;;;25.60;96.10;;;;;;1851978;77;21164;-81
2022/04/18 12:34:00;;;;;;;16.00;10.43;;;25.60;96.40;;;;;;1842343;75;21071;-82
2022/04/18 12:36:35;;;;;;;16.00;10.35;;;25.60;96.70;;;;;;1851452;76;21104;-82
2022/04/18 12:39:07;;;;;;;14.95;10.90;;;25.60;97.10;;;;;;1859307;76;21057;-81
2022/04/18 12:41:39;;;;;;;16.97;10.88;;;25.60;97.30;;;;;;1857521;75;21579;-82
2022/04/18 12:44:12;;;;;;;18.48;10.45;;;25.60;97.70;;;;;;1870146;76;21157;-82
2022/04/18 12:46:47;;;;;;;14.18;11.05;;;25.60;97.60;;;;;;1861895;76;21526;-82
2022/04/18 12:49:18;;;;;;;14.40;10.28;;;25.60;97.30;;;;;;1864865;77;21157;-82
2022/04/18 12:51:52;;;;;;;18.12;11.18;;;25.60;97.40;;;;;;1844638;77;21090;-83
2022/04/18 12:54:26;;;;;;;16.25;11.48;;;25.60;97.70;;;;;;1846486;75;21169;-83
2022/04/18 12:56:59;;;;;;;17.90;11.90;;;25.60;97.40;;;;;;1838328;78;21087;-82
2022/04/18 12:59:31;;;;;;;18.07;11.78;;;25.50;97.80;;;;;;1860911;76;21159;-81
2022/04/18 13:02:04;;;;;;;17.67;11.43;;;25.50;97.70;;;;;;1839443;78;21130;-80
2022/04/18 13:04:35;;;;;;;17.95;12.73;;;25.50;97.80;;;;;;1837733;78;21095;-80
2022/04/18 13:07:12;;;;;;;16.48;12.43;;;25.50;98.30;;;;;;1838608;77;21087;-81
2022/04/18 13:09:43;;;;;;;16.48;12.80;;;25.50;98.20;;;;;;1861025;76;21093;-81
2022/04/18 13:12:16;;;;;;;16.00;12.07;;;25.50;98.50;;;;;;1851843;76;21142;-82
2022/04/18 13:14:50;;;;;;;16.62;12.63;;;25.50;98.50;;;;;;1838045;77;21146;-81
2022/04/18 13:17:21;;;;;;;16.55;12.78;;;25.60;98.90;;;;;;1842065;77;21059;-81
2022/04/18 13:19:52;;;;;;;18.67;13.43;;;25.60;98.80;;;;;;1865452;77;21109;-83
2022/04/18 13:22:29;;;;;;;18.40;13.22;;;25.60;98.80;;;;;;1841486;77;21183;-82
2022/04/18 13:24:59;;;;;;;21.33;13.65;;;25.60;98.90;;;;;;1808541;79;21606;-80
2022/04/18 13:27:35;;;;;;;18.73;13.05;;;25.60;98.70;;;;;;1863671;77;21133;-81
2022/04/18 13:30:07;;;;;;;16.30;13.43;;;25.60;98.70;;;;;;1861729;76;21079;-81
2022/04/18 13:32:38;;;;;;;17.55;13.53;;;25.50;98.50;;;;;;1868024;77;21153;-81
2022/04/18 13:35:17;;;;;;;15.65;12.93;;;25.50;98.70;;;;;;1868567;77;21243;-81
2022/04/18 13:37:48;;;;;;;22.52;13.85;;;25.60;98.70;;;;;;1850538;77;21064;-82
2022/04/18 13:40:39;;;;;;;19.77;13.03;;;25.60;98.70;;;;;;1831961;77;21139;-83
2022/04/18 13:43:14;;;;;;;19.25;13.48;;;25.60;98.60;;;;;;1835895;77;21145;-81
2022/04/18 13:45:47;;;;;;;;;;;25.70;98.70;;;;;;1840761;78;21067;-80
2022/04/18 13:48:21;;;;;;;20.52;14.13;;;25.70;98.40;;;;;;1838118;78;20498;-81
2022/04/18 13:50:58;;;;;;;20.30;13.32;;;25.70;98.40;;;;;;1816986;78;21087;-80
2022/04/18 13:53:33;;;;;;;18.32;13.55;;;25.70;98.80;;;;;;1838543;77;21563;-81